sensor_id;sensor_type;location;lat;lon;timestamp;P1;durP1;ratioP1;P2;durP2;ratioP2
35188;SDS011;21762;54.480;18.556;2023-02-28T00:01:28;78.28;;;26.05;;
35188;SDS011;21762;54.480;18.556;2023-02-28T00:03:57;79.13;;;26.30;;
35188;SDS011;21762;54.480;18.556;2023-02-28T00:06:26;77.63;;;26.05;;
35188;SDS011;21762;54.480;18.556;2023-02-28T00:08:55;72.25;;;23.05;;
35188;SDS011;21762;54.480;18.556;2023-02-28T00:11:23;62.90;;;23.15;;
35188;SDS011;21762;54.480;18.556;2023-02-28T00:13:52;58.80;;;21.25;;
35188;SDS011;21762;54.480;18.556;2023-02-28T00:16:23;69.93;;;23.50;;
35188;SDS011;21762;54.480;18.556;2023-02-28T00:18:51;53.13;;;19.83;;
35188;SDS011;21762;54.480;18.556;2023-02-28T00:21:20;55.67;;;20.27;;
35188;SDS011;21762;54.480;18.556;2023-02-28T00:23:49;54.63;;;21.45;;
35188;SDS011;21762;54.480;18.556;2023-02-28T00:26:17;64.28;;;20.75;;
35188;SDS011;21762;54.480;18.556;2023-02-28T00:28:48;52.83;;;19.70;;
35188;SDS011;21762;54.480;18.556;2023-02-28T00:31:16;50.63;;;20.00;;
35188;SDS011;21762;54.480;18.556;2023-02-28T00:33:48;58.03;;;21.13;;
35188;SDS011;21762;54.480;18.556;2023-02-28T00:36:20;51.53;;;19.90;;
35188;SDS011;21762;54.480;18.556;2023-02-28T00:38:48;55.65;;;19.75;;
35188;SDS011;21762;54.480;18.556;2023-02-28T00:41:16;55.42;;;21.23;;
35188;SDS011;21762;54.480;18.556;2023-02-28T00:43:46;56.47;;;20.40;;
35188;SDS011;21762;54.480;18.556;2023-02-28T00:46:15;64.25;;;20.45;;
35188;SDS011;21762;54.480;18.556;2023-02-28T00:48:43;48.92;;;19.40;;
35188;SDS011;21762;54.480;18.556;2023-02-28T00:51:13;51.55;;;18.08;;
35188;SDS011;21762;54.480;18.556;2023-02-28T00:53:41;48.35;;;19.17;;
35188;SDS011;21762;54.480;18.556;2023-02-28T00:56:10;52.35;;;17.58;;
35188;SDS011;21762;54.480;18.556;2023-02-28T00:58:38;54.30;;;18.13;;
35188;SDS011;21762;54.480;18.556;2023-02-28T01:01:07;56.17;;;20.40;;
35188;SDS011;21762;54.480;18.556;2023-02-28T01:03:37;55.70;;;21.00;;
35188;SDS011;21762;54.480;18.556;2023-02-28T01:06:05;49.42;;;18.60;;
35188;SDS011;21762;54.480;18.556;2023-02-28T01:08:35;57.22;;;19.23;;
35188;SDS011;21762;54.480;18.556;2023-02-28T01:11:07;52.70;;;19.88;;
35188;SDS011;21762;54.480;18.556;2023-02-28T01:13:38;53.30;;;19.40;;
35188;SDS011;21762;54.480;18.556;2023-02-28T01:16:07;51.25;;;18.15;;
35188;SDS011;21762;54.480;18.556;2023-02-28T01:18:36;50.22;;;19.15;;
35188;SDS011;21762;54.480;18.556;2023-02-28T01:21:05;51.63;;;19.98;;
35188;SDS011;21762;54.480;18.556;2023-02-28T01:23:33;47.45;;;17.80;;
35188;SDS011;21762;54.480;18.556;2023-02-28T01:26:04;48.03;;;16.98;;
35188;SDS011;21762;54.480;18.556;2023-02-28T01:28:33;50.08;;;17.13;;
35188;SDS011;21762;54.480;18.556;2023-02-28T01:31:02;44.97;;;17.35;;
35188;SDS011;21762;54.480;18.556;2023-02-28T01:33:30;48.17;;;16.65;;
35188;SDS011;21762;54.480;18.556;2023-02-28T01:35:59;47.75;;;16.73;;
35188;SDS011;21762;54.480;18.556;2023-02-28T01:38:28;49.00;;;16.92;;
35188;SDS011;21762;54.480;18.556;2023-02-28T01:40:58;47.00;;;16.50;;
35188;SDS011;21762;54.480;18.556;2023-02-28T01:43:27;42.10;;;16.00;;
35188;SDS011;21762;54.480;18.556;2023-02-28T01:45:56;53.55;;;18.45;;
35188;SDS011;21762;54.480;18.556;2023-02-28T01:48:26;43.75;;;17.23;;
35188;SDS011;21762;54.480;18.556;2023-02-28T01:50:58;53.92;;;16.55;;
35188;SDS011;21762;54.480;18.556;2023-02-28T01:55:59;42.25;;;15.48;;
35188;SDS011;21762;54.480;18.556;2023-02-28T01:58:28;49.25;;;16.25;;
35188;SDS011;21762;54.480;18.556;2023-02-28T02:00:56;40.50;;;15.43;;
35188;SDS011;21762;54.480;18.556;2023-02-28T02:03:25;39.92;;;13.88;;
35188;SDS011;21762;54.480;18.556;2023-02-28T02:05:54;41.72;;;16.10;;
35188;SDS011;21762;54.480;18.556;2023-02-28T02:08:23;43.63;;;13.90;;
35188;SDS011;21762;54.480;18.556;2023-02-28T02:10:54;39.92;;;14.55;;
35188;SDS011;21762;54.480;18.556;2023-02-28T02:13:28;39.33;;;14.43;;
35188;SDS011;21762;54.480;18.556;2023-02-28T02:16:16;33.17;;;12.90;;
35188;SDS011;21762;54.480;18.556;2023-02-28T02:18:52;44.35;;;16.50;;
35188;SDS011;21762;54.480;18.556;2023-02-28T02:27:23;45.38;;;15.82;;
35188;SDS011;21762;54.480;18.556;2023-02-28T02:30:02;46.47;;;15.50;;
35188;SDS011;21762;54.480;18.556;2023-02-28T02:32:47;40.75;;;13.82;;
35188;SDS011;21762;54.480;18.556;2023-02-28T02:35:24;33.20;;;14.23;;
35188;SDS011;21762;54.480;18.556;2023-02-28T02:37:59;39.03;;;13.30;;
35188;SDS011;21762;54.480;18.556;2023-02-28T02:40:30;30.33;;;11.80;;
35188;SDS011;21762;54.480;18.556;2023-02-28T02:43:01;26.85;;;9.68;;
35188;SDS011;21762;54.480;18.556;2023-02-28T02:45:31;32.90;;;12.48;;
35188;SDS011;21762;54.480;18.556;2023-02-28T02:48:03;34.47;;;13.88;;
35188;SDS011;21762;54.480;18.556;2023-02-28T02:50:36;29.98;;;12.07;;
35188;SDS011;21762;54.480;18.556;2023-02-28T02:55:34;31.67;;;10.85;;
35188;SDS011;21762;54.480;18.556;2023-02-28T02:58:08;40.95;;;13.15;;
35188;SDS011;21762;54.480;18.556;2023-02-28T03:00:38;31.63;;;10.27;;
35188;SDS011;21762;54.480;18.556;2023-02-28T03:03:10;36.90;;;12.57;;
35188;SDS011;21762;54.480;18.556;2023-02-28T03:05:44;34.00;;;11.35;;
35188;SDS011;21762;54.480;18.556;2023-02-28T03:08:15;32.50;;;12.13;;
35188;SDS011;21762;54.480;18.556;2023-02-28T03:11:03;25.55;;;11.13;;
35188;SDS011;21762;54.480;18.556;2023-02-28T03:13:37;27.45;;;9.93;;
35188;SDS011;21762;54.480;18.556;2023-02-28T03:16:28;29.50;;;9.70;;
35188;SDS011;21762;54.480;18.556;2023-02-28T03:19:11;40.40;;;13.85;;
35188;SDS011;21762;54.480;18.556;2023-02-28T03:21:52;35.05;;;12.70;;
35188;SDS011;21762;54.480;18.556;2023-02-28T03:24:27;35.97;;;13.90;;
35188;SDS011;21762;54.480;18.556;2023-02-28T03:27:03;34.03;;;12.35;;
35188;SDS011;21762;54.480;18.556;2023-02-28T03:29:35;32.15;;;12.50;;
35188;SDS011;21762;54.480;18.556;2023-02-28T03:32:07;21.63;;;9.17;;
35188;SDS011;21762;54.480;18.556;2023-02-28T03:34:42;31.10;;;13.45;;
35188;SDS011;21762;54.480;18.556;2023-02-28T03:37:16;36.20;;;14.90;;
35188;SDS011;21762;54.480;18.556;2023-02-28T03:39:49;35.22;;;14.13;;
35188;SDS011;21762;54.480;18.556;2023-02-28T03:42:22;32.95;;;12.80;;
35188;SDS011;21762;54.480;18.556;2023-02-28T03:44:53;34.03;;;12.73;;
35188;SDS011;21762;54.480;18.556;2023-02-28T03:47:24;29.63;;;11.05;;
35188;SDS011;21762;54.480;18.556;2023-02-28T03:49:55;32.80;;;11.88;;
35188;SDS011;21762;54.480;18.556;2023-02-28T03:52:28;32.55;;;11.77;;
35188;SDS011;21762;54.480;18.556;2023-02-28T03:55:00;32.55;;;11.90;;
35188;SDS011;21762;54.480;18.556;2023-02-28T03:57:33;35.92;;;12.35;;
35188;SDS011;21762;54.480;18.556;2023-02-28T04:00:07;36.67;;;12.48;;
35188;SDS011;21762;54.480;18.556;2023-02-28T04:02:38;36.38;;;11.73;;
35188;SDS011;21762;54.480;18.556;2023-02-28T04:05:07;35.25;;;13.45;;
35188;SDS011;21762;54.480;18.556;2023-02-28T04:07:37;37.67;;;12.13;;
35188;SDS011;21762;54.480;18.556;2023-02-28T04:10:06;34.17;;;11.07;;
35188;SDS011;21762;54.480;18.556;2023-02-28T04:12:35;31.20;;;11.90;;
35188;SDS011;21762;54.480;18.556;2023-02-28T04:15:04;32.13;;;10.93;;
35188;SDS011;21762;54.480;18.556;2023-02-28T04:17:33;25.48;;;11.23;;
35188;SDS011;21762;54.480;18.556;2023-02-28T04:20:01;28.13;;;11.23;;
35188;SDS011;21762;54.480;18.556;2023-02-28T04:22:37;27.33;;;10.82;;
35188;SDS011;21762;54.480;18.556;2023-02-28T04:25:06;30.33;;;10.48;;
35188;SDS011;21762;54.480;18.556;2023-02-28T04:27:35;28.95;;;10.77;;
35188;SDS011;21762;54.480;18.556;2023-02-28T04:30:04;30.17;;;11.80;;
35188;SDS011;21762;54.480;18.556;2023-02-28T04:32:33;28.05;;;10.77;;
35188;SDS011;21762;54.480;18.556;2023-02-28T04:35:02;28.17;;;10.65;;
35188;SDS011;21762;54.480;18.556;2023-02-28T04:37:30;27.83;;;10.02;;
35188;SDS011;21762;54.480;18.556;2023-02-28T04:40:03;25.25;;;9.15;;
35188;SDS011;21762;54.480;18.556;2023-02-28T04:42:32;24.15;;;8.88;;
35188;SDS011;21762;54.480;18.556;2023-02-28T04:45:02;21.30;;;8.82;;
35188;SDS011;21762;54.480;18.556;2023-02-28T04:47:31;23.40;;;8.57;;
35188;SDS011;21762;54.480;18.556;2023-02-28T04:49:59;19.08;;;8.00;;
35188;SDS011;21762;54.480;18.556;2023-02-28T04:52:28;16.98;;;8.15;;
35188;SDS011;21762;54.480;18.556;2023-02-28T04:54:56;18.73;;;7.07;;
35188;SDS011;21762;54.480;18.556;2023-02-28T04:57:26;20.05;;;7.55;;
35188;SDS011;21762;54.480;18.556;2023-02-28T04:59:54;25.55;;;7.63;;
35188;SDS011;21762;54.480;18.556;2023-02-28T05:02:23;23.17;;;8.18;;
35188;SDS011;21762;54.480;18.556;2023-02-28T05:04:51;17.00;;;7.47;;
35188;SDS011;21762;54.480;18.556;2023-02-28T05:07:20;19.17;;;7.28;;
35188;SDS011;21762;54.480;18.556;2023-02-28T05:09:48;27.10;;;8.32;;
35188;SDS011;21762;54.480;18.556;2023-02-28T05:12:16;17.98;;;7.35;;
35188;SDS011;21762;54.480;18.556;2023-02-28T05:14:46;18.50;;;8.35;;
35188;SDS011;21762;54.480;18.556;2023-02-28T05:17:15;17.05;;;7.22;;
35188;SDS011;21762;54.480;18.556;2023-02-28T05:19:43;18.67;;;7.45;;
35188;SDS011;21762;54.480;18.556;2023-02-28T05:22:13;16.08;;;6.55;;
35188;SDS011;21762;54.480;18.556;2023-02-28T05:24:42;18.48;;;5.95;;
35188;SDS011;21762;54.480;18.556;2023-02-28T05:27:10;16.50;;;6.63;;
35188;SDS011;21762;54.480;18.556;2023-02-28T05:29:39;15.25;;;6.25;;
35188;SDS011;21762;54.480;18.556;2023-02-28T05:32:11;12.68;;;5.63;;
35188;SDS011;21762;54.480;18.556;2023-02-28T05:34:40;19.48;;;6.78;;
35188;SDS011;21762;54.480;18.556;2023-02-28T05:37:11;17.45;;;6.22;;
35188;SDS011;21762;54.480;18.556;2023-02-28T05:39:40;11.95;;;6.30;;
35188;SDS011;21762;54.480;18.556;2023-02-28T05:42:09;15.18;;;6.28;;
35188;SDS011;21762;54.480;18.556;2023-02-28T05:44:37;17.35;;;7.05;;
35188;SDS011;21762;54.480;18.556;2023-02-28T05:47:05;23.73;;;6.63;;
35188;SDS011;21762;54.480;18.556;2023-02-28T05:49:36;18.92;;;7.97;;
35188;SDS011;21762;54.480;18.556;2023-02-28T05:52:04;22.25;;;8.13;;
35188;SDS011;21762;54.480;18.556;2023-02-28T05:54:32;19.48;;;8.30;;
35188;SDS011;21762;54.480;18.556;2023-02-28T05:57:01;20.88;;;7.90;;
35188;SDS011;21762;54.480;18.556;2023-02-28T05:59:35;20.95;;;7.75;;
35188;SDS011;21762;54.480;18.556;2023-02-28T06:02:06;22.80;;;8.17;;
35188;SDS011;21762;54.480;18.556;2023-02-28T06:04:40;20.50;;;7.82;;
35188;SDS011;21762;54.480;18.556;2023-02-28T06:07:09;20.67;;;8.30;;
35188;SDS011;21762;54.480;18.556;2023-02-28T06:09:38;22.85;;;8.65;;
35188;SDS011;21762;54.480;18.556;2023-02-28T06:12:06;25.13;;;8.32;;
35188;SDS011;21762;54.480;18.556;2023-02-28T06:14:36;18.23;;;8.00;;
35188;SDS011;21762;54.480;18.556;2023-02-28T06:17:05;22.70;;;8.10;;
35188;SDS011;21762;54.480;18.556;2023-02-28T06:19:33;31.40;;;10.77;;
35188;SDS011;21762;54.480;18.556;2023-02-28T06:22:05;32.25;;;13.02;;
35188;SDS011;21762;54.480;18.556;2023-02-28T06:24:33;28.75;;;11.32;;
35188;SDS011;21762;54.480;18.556;2023-02-28T06:27:01;34.78;;;12.93;;
35188;SDS011;21762;54.480;18.556;2023-02-28T06:29:32;28.77;;;10.57;;
35188;SDS011;21762;54.480;18.556;2023-02-28T06:32:00;28.90;;;11.10;;
35188;SDS011;21762;54.480;18.556;2023-02-28T06:34:29;29.92;;;11.30;;
35188;SDS011;21762;54.480;18.556;2023-02-28T06:36:58;34.85;;;10.32;;
35188;SDS011;21762;54.480;18.556;2023-02-28T06:39:30;21.63;;;7.13;;
35188;SDS011;21762;54.480;18.556;2023-02-28T06:41:59;20.27;;;7.57;;
35188;SDS011;21762;54.480;18.556;2023-02-28T06:44:27;21.38;;;7.18;;
35188;SDS011;21762;54.480;18.556;2023-02-28T06:47:02;19.35;;;7.25;;
35188;SDS011;21762;54.480;18.556;2023-02-28T06:49:31;17.33;;;7.93;;
35188;SDS011;21762;54.480;18.556;2023-02-28T06:52:00;25.95;;;9.75;;
35188;SDS011;21762;54.480;18.556;2023-02-28T06:54:30;25.05;;;9.75;;
35188;SDS011;21762;54.480;18.556;2023-02-28T06:56:59;22.23;;;9.05;;
35188;SDS011;21762;54.480;18.556;2023-02-28T06:59:27;18.08;;;7.13;;
35188;SDS011;21762;54.480;18.556;2023-02-28T07:01:56;17.05;;;8.13;;
35188;SDS011;21762;54.480;18.556;2023-02-28T07:04:25;23.67;;;7.85;;
35188;SDS011;21762;54.480;18.556;2023-02-28T07:06:54;18.55;;;6.82;;
35188;SDS011;21762;54.480;18.556;2023-02-28T07:09:24;24.17;;;7.78;;
35188;SDS011;21762;54.480;18.556;2023-02-28T07:11:58;23.48;;;8.40;;
35188;SDS011;21762;54.480;18.556;2023-02-28T07:14:27;21.05;;;8.25;;
35188;SDS011;21762;54.480;18.556;2023-02-28T07:16:55;26.65;;;8.80;;
35188;SDS011;21762;54.480;18.556;2023-02-28T07:19:24;23.15;;;8.93;;
35188;SDS011;21762;54.480;18.556;2023-02-28T07:21:53;18.02;;;9.40;;
35188;SDS011;21762;54.480;18.556;2023-02-28T07:24:22;20.95;;;7.13;;
35188;SDS011;21762;54.480;18.556;2023-02-28T07:26:55;14.98;;;7.38;;
35188;SDS011;21762;54.480;18.556;2023-02-28T07:29:25;17.23;;;6.95;;
35188;SDS011;21762;54.480;18.556;2023-02-28T07:31:54;18.85;;;7.57;;
35188;SDS011;21762;54.480;18.556;2023-02-28T07:34:23;14.52;;;7.35;;
35188;SDS011;21762;54.480;18.556;2023-02-28T07:36:53;18.50;;;7.43;;
35188;SDS011;21762;54.480;18.556;2023-02-28T07:39:21;20.30;;;6.70;;
35188;SDS011;21762;54.480;18.556;2023-02-28T07:41:50;19.25;;;6.97;;
35188;SDS011;21762;54.480;18.556;2023-02-28T07:44:25;17.35;;;7.35;;
35188;SDS011;21762;54.480;18.556;2023-02-28T07:46:54;19.70;;;6.53;;
35188;SDS011;21762;54.480;18.556;2023-02-28T07:49:23;11.32;;;5.18;;
35188;SDS011;21762;54.480;18.556;2023-02-28T07:51:52;9.60;;;3.55;;
35188;SDS011;21762;54.480;18.556;2023-02-28T07:54:20;10.68;;;3.95;;
35188;SDS011;21762;54.480;18.556;2023-02-28T07:56:49;14.02;;;4.20;;
35188;SDS011;21762;54.480;18.556;2023-02-28T07:59:17;14.98;;;3.97;;
35188;SDS011;21762;54.480;18.556;2023-02-28T08:01:48;9.63;;;3.85;;
35188;SDS011;21762;54.480;18.556;2023-02-28T08:04:17;10.32;;;4.13;;
35188;SDS011;21762;54.480;18.556;2023-02-28T08:06:46;13.50;;;4.90;;
35188;SDS011;21762;54.480;18.556;2023-02-28T08:09:15;11.77;;;4.60;;
35188;SDS011;21762;54.480;18.556;2023-02-28T08:11:44;13.65;;;4.88;;
35188;SDS011;21762;54.480;18.556;2023-02-28T08:14:13;18.95;;;5.82;;
35188;SDS011;21762;54.480;18.556;2023-02-28T08:16:42;10.18;;;4.97;;
35188;SDS011;21762;54.480;18.556;2023-02-28T08:19:12;15.32;;;4.63;;
35188;SDS011;21762;54.480;18.556;2023-02-28T08:21:41;11.32;;;4.25;;
35188;SDS011;21762;54.480;18.556;2023-02-28T08:24:10;10.23;;;4.45;;
35188;SDS011;21762;54.480;18.556;2023-02-28T08:26:38;12.15;;;4.30;;
35188;SDS011;21762;54.480;18.556;2023-02-28T08:29:07;9.98;;;4.07;;
35188;SDS011;21762;54.480;18.556;2023-02-28T08:31:37;11.15;;;5.15;;
35188;SDS011;21762;54.480;18.556;2023-02-28T08:34:06;13.10;;;4.47;;
35188;SDS011;21762;54.480;18.556;2023-02-28T08:36:37;9.98;;;5.07;;
35188;SDS011;21762;54.480;18.556;2023-02-28T08:39:06;11.05;;;5.32;;
35188;SDS011;21762;54.480;18.556;2023-02-28T08:41:36;16.13;;;5.72;;
35188;SDS011;21762;54.480;18.556;2023-02-28T08:44:05;16.33;;;4.82;;
35188;SDS011;21762;54.480;18.556;2023-02-28T08:46:34;14.07;;;5.13;;
35188;SDS011;21762;54.480;18.556;2023-02-28T08:49:02;13.40;;;5.30;;
35188;SDS011;21762;54.480;18.556;2023-02-28T08:51:30;11.52;;;4.32;;
35188;SDS011;21762;54.480;18.556;2023-02-28T08:54:01;12.07;;;3.75;;
35188;SDS011;21762;54.480;18.556;2023-02-28T08:56:29;13.82;;;3.65;;
35188;SDS011;21762;54.480;18.556;2023-02-28T08:58:58;7.60;;;3.63;;
35188;SDS011;21762;54.480;18.556;2023-02-28T09:01:28;6.57;;;3.13;;
35188;SDS011;21762;54.480;18.556;2023-02-28T09:03:58;11.05;;;3.92;;
35188;SDS011;21762;54.480;18.556;2023-02-28T09:06:28;9.60;;;3.03;;
35188;SDS011;21762;54.480;18.556;2023-02-28T09:08:57;8.73;;;2.88;;
35188;SDS011;21762;54.480;18.556;2023-02-28T09:11:29;6.88;;;2.47;;
35188;SDS011;21762;54.480;18.556;2023-02-28T09:13:58;15.93;;;3.22;;
35188;SDS011;21762;54.480;18.556;2023-02-28T09:16:30;8.02;;;2.83;;
35188;SDS011;21762;54.480;18.556;2023-02-28T09:19:00;8.35;;;2.97;;
35188;SDS011;21762;54.480;18.556;2023-02-28T09:21:29;5.05;;;2.70;;
35188;SDS011;21762;54.480;18.556;2023-02-28T09:23:59;7.00;;;2.53;;
35188;SDS011;21762;54.480;18.556;2023-02-28T09:26:29;7.40;;;3.80;;
35188;SDS011;21762;54.480;18.556;2023-02-28T09:28:57;7.47;;;2.70;;
35188;SDS011;21762;54.480;18.556;2023-02-28T09:31:26;6.53;;;2.85;;
35188;SDS011;21762;54.480;18.556;2023-02-28T09:33:56;7.10;;;2.38;;
35188;SDS011;21762;54.480;18.556;2023-02-28T09:36:26;7.97;;;2.28;;
35188;SDS011;21762;54.480;18.556;2023-02-28T09:39:08;11.40;;;3.03;;
35188;SDS011;21762;54.480;18.556;2023-02-28T09:41:39;6.47;;;2.40;;
35188;SDS011;21762;54.480;18.556;2023-02-28T09:44:16;4.80;;;2.10;;
35188;SDS011;21762;54.480;18.556;2023-02-28T09:46:48;7.35;;;2.50;;
35188;SDS011;21762;54.480;18.556;2023-02-28T09:49:22;4.50;;;2.33;;
35188;SDS011;21762;54.480;18.556;2023-02-28T09:51:55;6.75;;;2.03;;
35188;SDS011;21762;54.480;18.556;2023-02-28T09:54:27;6.35;;;2.42;;
35188;SDS011;21762;54.480;18.556;2023-02-28T09:56:59;8.50;;;2.75;;
35188;SDS011;21762;54.480;18.556;2023-02-28T09:59:37;8.07;;;2.72;;
35188;SDS011;21762;54.480;18.556;2023-02-28T10:02:13;8.85;;;2.88;;
35188;SDS011;21762;54.480;18.556;2023-02-28T10:04:49;8.20;;;2.80;;
35188;SDS011;21762;54.480;18.556;2023-02-28T10:07:40;8.63;;;2.45;;
35188;SDS011;21762;54.480;18.556;2023-02-28T10:10:18;3.67;;;1.83;;
35188;SDS011;21762;54.480;18.556;2023-02-28T10:12:50;9.05;;;2.38;;
35188;SDS011;21762;54.480;18.556;2023-02-28T10:15:22;4.13;;;1.73;;
35188;SDS011;21762;54.480;18.556;2023-02-28T10:17:54;8.93;;;1.92;;
35188;SDS011;21762;54.480;18.556;2023-02-28T10:20:34;6.55;;;2.22;;
35188;SDS011;21762;54.480;18.556;2023-02-28T10:23:08;10.07;;;3.13;;
35188;SDS011;21762;54.480;18.556;2023-02-28T10:25:40;7.75;;;2.30;;
35188;SDS011;21762;54.480;18.556;2023-02-28T10:28:16;7.85;;;3.05;;
35188;SDS011;21762;54.480;18.556;2023-02-28T10:30:46;7.05;;;2.10;;
35188;SDS011;21762;54.480;18.556;2023-02-28T10:33:19;6.40;;;2.28;;
35188;SDS011;21762;54.480;18.556;2023-02-28T10:35:51;6.75;;;2.60;;
35188;SDS011;21762;54.480;18.556;2023-02-28T10:38:21;7.32;;;2.80;;
35188;SDS011;21762;54.480;18.556;2023-02-28T10:40:50;4.95;;;2.28;;
35188;SDS011;21762;54.480;18.556;2023-02-28T10:43:21;7.88;;;2.63;;
35188;SDS011;21762;54.480;18.556;2023-02-28T10:45:56;7.93;;;2.35;;
35188;SDS011;21762;54.480;18.556;2023-02-28T10:48:29;6.07;;;2.38;;
35188;SDS011;21762;54.480;18.556;2023-02-28T10:50:59;7.80;;;2.78;;
35188;SDS011;21762;54.480;18.556;2023-02-28T10:53:33;7.25;;;3.33;;
35188;SDS011;21762;54.480;18.556;2023-02-28T10:56:24;10.02;;;3.03;;
35188;SDS011;21762;54.480;18.556;2023-02-28T10:58:56;8.25;;;3.80;;
35188;SDS011;21762;54.480;18.556;2023-02-28T11:01:34;9.52;;;3.38;;
35188;SDS011;21762;54.480;18.556;2023-02-28T11:04:16;8.63;;;3.40;;
35188;SDS011;21762;54.480;18.556;2023-02-28T11:06:46;12.57;;;4.43;;
35188;SDS011;21762;54.480;18.556;2023-02-28T11:09:18;11.57;;;3.65;;
35188;SDS011;21762;54.480;18.556;2023-02-28T11:11:50;12.80;;;5.25;;
35188;SDS011;21762;54.480;18.556;2023-02-28T11:14:21;4.88;;;2.78;;
35188;SDS011;21762;54.480;18.556;2023-02-28T11:16:50;7.72;;;2.88;;
35188;SDS011;21762;54.480;18.556;2023-02-28T11:19:20;9.13;;;3.30;;
35188;SDS011;21762;54.480;18.556;2023-02-28T11:24:22;7.28;;;2.38;;
35188;SDS011;21762;54.480;18.556;2023-02-28T11:26:54;7.07;;;2.50;;
35188;SDS011;21762;54.480;18.556;2023-02-28T11:29:26;9.02;;;2.70;;
35188;SDS011;21762;54.480;18.556;2023-02-28T11:32:03;5.38;;;2.35;;
35188;SDS011;21762;54.480;18.556;2023-02-28T11:34:37;10.65;;;3.20;;
35188;SDS011;21762;54.480;18.556;2023-02-28T11:37:09;5.30;;;2.45;;
35188;SDS011;21762;54.480;18.556;2023-02-28T11:39:40;8.50;;;3.20;;
35188;SDS011;21762;54.480;18.556;2023-02-28T11:45:07;5.65;;;2.42;;
35188;SDS011;21762;54.480;18.556;2023-02-28T11:47:44;4.80;;;2.47;;
35188;SDS011;21762;54.480;18.556;2023-02-28T11:50:20;5.20;;;2.15;;
35188;SDS011;21762;54.480;18.556;2023-02-28T11:52:56;5.43;;;2.20;;
35188;SDS011;21762;54.480;18.556;2023-02-28T11:55:27;5.88;;;2.30;;
35188;SDS011;21762;54.480;18.556;2023-02-28T11:58:05;8.13;;;2.28;;
35188;SDS011;21762;54.480;18.556;2023-02-28T12:00:50;6.07;;;2.10;;
35188;SDS011;21762;54.480;18.556;2023-02-28T12:03:27;4.20;;;2.00;;
35188;SDS011;21762;54.480;18.556;2023-02-28T12:06:06;5.38;;;2.00;;
35188;SDS011;21762;54.480;18.556;2023-02-28T12:11:15;6.00;;;2.45;;
35188;SDS011;21762;54.480;18.556;2023-02-28T12:13:48;6.22;;;2.38;;
35188;SDS011;21762;54.480;18.556;2023-02-28T12:16:29;6.40;;;2.70;;
35188;SDS011;21762;54.480;18.556;2023-02-28T12:19:07;6.75;;;2.50;;
35188;SDS011;21762;54.480;18.556;2023-02-28T12:22:02;6.20;;;2.47;;
35188;SDS011;21762;54.480;18.556;2023-02-28T12:24:47;5.72;;;1.85;;
35188;SDS011;21762;54.480;18.556;2023-02-28T12:27:34;7.40;;;1.98;;
35188;SDS011;21762;54.480;18.556;2023-02-28T12:30:08;3.70;;;1.90;;
35188;SDS011;21762;54.480;18.556;2023-02-28T12:32:45;5.60;;;1.90;;
35188;SDS011;21762;54.480;18.556;2023-02-28T12:35:16;13.88;;;2.60;;
35188;SDS011;21762;54.480;18.556;2023-02-28T12:40:19;5.57;;;1.98;;
35188;SDS011;21762;54.480;18.556;2023-02-28T12:42:50;4.75;;;1.50;;
35188;SDS011;21762;54.480;18.556;2023-02-28T12:45:20;4.03;;;1.70;;
35188;SDS011;21762;54.480;18.556;2023-02-28T12:47:52;3.60;;;1.52;;
35188;SDS011;21762;54.480;18.556;2023-02-28T12:50:25;8.00;;;2.03;;
35188;SDS011;21762;54.480;18.556;2023-02-28T12:52:58;4.63;;;1.45;;
35188;SDS011;21762;54.480;18.556;2023-02-28T12:58:01;2.90;;;1.20;;
35188;SDS011;21762;54.480;18.556;2023-02-28T13:00:36;6.82;;;1.55;;
35188;SDS011;21762;54.480;18.556;2023-02-28T13:03:13;5.10;;;1.42;;
35188;SDS011;21762;54.480;18.556;2023-02-28T13:06:10;5.47;;;1.45;;
35188;SDS011;21762;54.480;18.556;2023-02-28T13:09:03;3.38;;;1.73;;
35188;SDS011;21762;54.480;18.556;2023-02-28T13:11:37;6.57;;;2.08;;
35188;SDS011;21762;54.480;18.556;2023-02-28T13:14:16;3.08;;;1.33;;
35188;SDS011;21762;54.480;18.556;2023-02-28T13:16:54;4.82;;;1.85;;
35188;SDS011;21762;54.480;18.556;2023-02-28T13:22:01;3.55;;;1.70;;
35188;SDS011;21762;54.480;18.556;2023-02-28T13:24:38;6.22;;;1.80;;
35188;SDS011;21762;54.480;18.556;2023-02-28T13:33:24;3.63;;;1.85;;
35188;SDS011;21762;54.480;18.556;2023-02-28T13:36:09;5.32;;;2.40;;
35188;SDS011;21762;54.480;18.556;2023-02-28T13:38:41;5.10;;;2.38;;
35188;SDS011;21762;54.480;18.556;2023-02-28T13:44:15;4.13;;;2.38;;
35188;SDS011;21762;54.480;18.556;2023-02-28T13:49:51;6.57;;;2.65;;
35188;SDS011;21762;54.480;18.556;2023-02-28T13:52:23;8.85;;;3.70;;
35188;SDS011;21762;54.480;18.556;2023-02-28T13:57:35;8.25;;;3.38;;
35188;SDS011;21762;54.480;18.556;2023-02-28T14:00:18;8.70;;;2.70;;
35188;SDS011;21762;54.480;18.556;2023-02-28T14:02:57;14.63;;;4.15;;
35188;SDS011;21762;54.480;18.556;2023-02-28T14:05:34;5.55;;;3.13;;
35188;SDS011;21762;54.480;18.556;2023-02-28T14:08:06;8.05;;;2.75;;
35188;SDS011;21762;54.480;18.556;2023-02-28T14:10:42;6.38;;;2.97;;
35188;SDS011;21762;54.480;18.556;2023-02-28T14:15:46;9.70;;;3.50;;
35188;SDS011;21762;54.480;18.556;2023-02-28T14:18:21;7.53;;;3.38;;
35188;SDS011;21762;54.480;18.556;2023-02-28T14:21:08;10.73;;;3.53;;
35188;SDS011;21762;54.480;18.556;2023-02-28T14:23:45;10.43;;;4.07;;
35188;SDS011;21762;54.480;18.556;2023-02-28T14:26:28;11.23;;;4.80;;
35188;SDS011;21762;54.480;18.556;2023-02-28T14:29:19;9.10;;;3.70;;
35188;SDS011;21762;54.480;18.556;2023-02-28T14:31:58;10.35;;;4.18;;
35188;SDS011;21762;54.480;18.556;2023-02-28T14:34:36;15.05;;;3.88;;
35188;SDS011;21762;54.480;18.556;2023-02-28T14:37:10;12.35;;;4.93;;
35188;SDS011;21762;54.480;18.556;2023-02-28T14:39:45;9.43;;;4.00;;
35188;SDS011;21762;54.480;18.556;2023-02-28T14:45:01;12.80;;;4.45;;
35188;SDS011;21762;54.480;18.556;2023-02-28T14:47:31;10.60;;;3.90;;
35188;SDS011;21762;54.480;18.556;2023-02-28T14:50:02;12.20;;;4.82;;
35188;SDS011;21762;54.480;18.556;2023-02-28T14:52:32;10.52;;;4.20;;
35188;SDS011;21762;54.480;18.556;2023-02-28T14:55:04;9.82;;;4.40;;
35188;SDS011;21762;54.480;18.556;2023-02-28T14:57:39;7.57;;;4.30;;
35188;SDS011;21762;54.480;18.556;2023-02-28T15:02:42;12.07;;;4.17;;
35188;SDS011;21762;54.480;18.556;2023-02-28T15:05:25;10.27;;;4.03;;
35188;SDS011;21762;54.480;18.556;2023-02-28T15:08:09;15.55;;;6.15;;
35188;SDS011;21762;54.480;18.556;2023-02-28T15:10:43;12.30;;;4.72;;
35188;SDS011;21762;54.480;18.556;2023-02-28T15:13:13;10.93;;;3.40;;
35188;SDS011;21762;54.480;18.556;2023-02-28T15:15:44;7.05;;;3.05;;
35188;SDS011;21762;54.480;18.556;2023-02-28T15:18:29;9.73;;;3.85;;
35188;SDS011;21762;54.480;18.556;2023-02-28T15:21:02;11.85;;;4.35;;
35188;SDS011;21762;54.480;18.556;2023-02-28T15:23:32;11.37;;;4.30;;
35188;SDS011;21762;54.480;18.556;2023-02-28T15:26:05;15.32;;;5.03;;
35188;SDS011;21762;54.480;18.556;2023-02-28T15:28:34;11.05;;;4.95;;
35188;SDS011;21762;54.480;18.556;2023-02-28T15:31:03;12.68;;;4.22;;
35188;SDS011;21762;54.480;18.556;2023-02-28T15:33:52;8.55;;;3.72;;
35188;SDS011;21762;54.480;18.556;2023-02-28T15:36:23;10.55;;;4.40;;
35188;SDS011;21762;54.480;18.556;2023-02-28T15:38:54;12.80;;;3.80;;